默认 日期 大小 文件数 浏览量 最新下载 xml
jackass 5磁力链接相关资源由用户搜索指令自动获取,结果来源于网络,本站不存储任何资料,亦不承担任何责任,请于24小时内删除,搜索到241个磁力,用时9ms。
    {"Zapraszamy na ex-torrenty.org.url": 112, "Jackass.4.5.2022.PL.480p.WEB-DL.XviD.DD5.1-K83.avi": 1566381304}
创建时间: 2022-06-09 23:43:05 大小:1.46 GB 文件数量:2 热度:6 最近下载:2025-04-08 02:27:01
    {"Info.nfo": 275, "Jackass.4.5.2022.720p.NF.WEB-DL.DDP5.1.x264-SMURF.mkv": 3155854429, "Jackass.4.5.2022.720p.NF.WEB-DL.DDP5.1.x264-SMURF.srt": 98226}
创建时间: 2022-06-11 16:23:56 大小:2.94 GB 文件数量:3 热度:8 最近下载:2025-04-08 02:26:01
    {"Importante Leeme!.vbs": 213, "Jackass.4.5.2022.DVDrip-lat.avi": 473720534, "Descargar Películas, Series y Animes...url": 50}
创建时间: 2022-06-12 18:35:15 大小:451.78 MB 文件数量:3 热度:7 最近下载:2025-04-08 02:27:02
    {"Importante Leeme!.vbs": 213, "Jackass.4.5.2022.1080p-dual-lat.mkv": 2859758710, "Descargar Películas, Series y Animes...url": 50}
创建时间: 2022-06-14 12:16:55 大小:2.66 GB 文件数量:3 热度:8 最近下载:2025-04-08 02:24:02
    {"Zapraszamy na ex-torrenty.org.url": 112, "Jackass.4.5.2022.PL.1080p.NF.WEB-DL.X264-J.mkv": 4660490874}
创建时间: 2022-06-22 20:24:52 大小:4.34 GB 文件数量:2 热度:10 最近下载:2025-04-08 02:25:02
    {"Zapraszamy na ex-torrenty.org.url": 112, "Jackass.4.5.2022.PL.WEB-DL.XviD-K83.avi": 734462560}
创建时间: 2022-06-24 13:33:49 大小:700.44 MB 文件数量:2 热度:7 最近下载:2025-04-08 02:25:01
    {"Zapraszamy na ex-torrenty.org.url": 112, "Jackass.4.5.2022.PL.720p.WEB-DL.XviD.DD5.1-K83.avi": 2479897864}
创建时间: 2022-07-01 23:53:03 大小:2.31 GB 文件数量:2 热度:8 最近下载:2025-04-08 02:24:02
    {"Jackass.3.5.2011.BRRip.x264-RioN.MKV": 1468297314, "Jackass.3.5.2011.BRRip.x264-RioN.nfo": 5764}
创建时间: 2022-07-04 13:10:25 大小:1.37 GB 文件数量:2 热度:8 最近下载:2025-04-13 08:48:01
    {"www.Speed.Cd.txt": 47, "Speed.cd read me .txt": 47, "Jackass.3.5.2011.720p.BRRiP.XViD.AC3-FLAWL3SS.avi": 2960107520, "Jackass.3.5.2011.720p.BRRiP.XViD.AC3-FLAWL3SS.nfo": 2476, "Jackass.3.5.2011.720p.BRRiP.XViD.AC3-FLAWL3SS.sample.avi": 58968064}
创建时间: 2022-07-08 09:39:21 大小:2.81 GB 文件数量:5 热度:5 最近下载:2025-04-17 21:42:02
    {"Importante Leeme!.vbs": 213, "Jackass.4.5.2022.720p-dual-lat.mkv": 1991255305, "Descargar Películas, Series y Animes...url": 50}
创建时间: 2022-07-23 23:43:17 大小:1.85 GB 文件数量:3 热度:11 最近下载:2025-04-08 02:25:01
    {".pad": {"381925": 381925}, "WWW.YTS.RE.jpg": 110514, "Jackass.Presents.Bad.Grandpa..5.2014.1080p.BluRay.x264.YIFY.mp4": 1326591003}
创建时间: 2022-08-07 21:05:34 大小:1.24 GB 文件数量:3 热度:5 最近下载:2025-08-29 19:16:02
    {".pad": {"21377": 21377, "523815": 523815}, "www.YTS.MX.jpg": 53226, "YTSProxies.com.txt": 473, "Jackass.3.5.2011.1080p.BluRay.x264.AAC5.1-[YTS.MX].mp4": 1680321663}
创建时间: 2022-08-10 16:31:38 大小:1.57 GB 文件数量:5 热度:3 最近下载:2025-01-11 08:26:01
    {"Jackass.4.5.2022.MULTi.720p.NF.WEB-DL.DDP5.1.H264-PTRG.mkv": 2082849834, "Jackass.4.5.2022.MULTi.720p.NF.WEB-DL.DDP5.1.H264-PTRG.nfo": 6609}
创建时间: 2022-08-11 08:00:57 大小:1.94 GB 文件数量:2 热度:10 最近下载:2025-04-08 02:25:01
    {"www.YTS.MX.jpg": 53226, "YTSProxies.com.txt": 473, "Jackass.The.Movie.2002.1080p.WEBRip.x264.AAC5.1-[YTS.MX].mp4": 1682245248}
创建时间: 2022-08-11 21:10:33 大小:1.57 GB 文件数量:3 热度:3 最近下载:2025-01-25 00:49:03
    ... DHD.Mysilu.ts": 22716930744, "Jackass.3.5.UNRATED.2011.BD.REMUX.h264 ... Mysilu.ts.par2": 59588, "Jackass.3.5.UNRATED.2011.BD.REMUX.h264 ... vol0+1.PAR2": 7739656, "Jackass.3.5.UNRATED.2011.BD.REMUX.h264 ... vol1+2.PAR2": 15479236, "Jackass.3.5.UNRATED.2011.BD.REMUX.h264 ...
创建时间: 2022-08-15 07:53:45 大小:21.2 GB 文件数量:5 热度:8 最近下载:2025-04-27 13:50:01
    {"torentup.png": 42954, "Przeczytaj koniecznie torentup.txt": 1601, "Downloaded from TnTTorrenT.info.txt": 4314, "Jackass Bezwstydny dziadek 0 5-Jackass Presents Bad Grandpa 0.5 (2014)[BRRip.XviD-torentup][Lektor PL].avi": 733491200}
创建时间: 2022-08-28 17:01:03 大小:699.56 MB 文件数量:4 热度:4 最近下载:2025-08-29 19:16:04
    {"Jackass 4.5 (2022) 1080p WEB-DL x264 iTA ENG E-AC3 Sub ita eng - iDN_CreW.mkv": 2568362317}
创建时间: 2022-08-29 21:44:45 大小:2.39 GB 文件数量:1 热度:9 最近下载:2025-10-15 15:25:01
    {"Subs": {"wthd-jackass2.5-subs.rar": 801267, "wthd-jackass2.5-subs.sfv": 35}, "Sample": {"wthd-jackass2.5-proof.jpg": 200127, "wthd-jackass2.5-sample.avi": 11698176}, "wthd-jackass2.5.avi": 733302784, "wthd-jackass2.5.nfo": 6728}
创建时间: 2022-09-24 20:37:48 大小:711.45 MB 文件数量:6 热度:2 最近下载:2025-02-17 12:25:03
    {"www.torrenting.com.txt": 83, "Downloaded from [ www.torrenting.com ].txt": 83, "Jackass.Presents.Bad.Grandpa.0.5.2014.720p.BRRip.x264.AC3-EVO.mkv": 2407933763, "Jackass.Presents.Bad.Grandpa.0.5.2014.720p.BRRip.x264.AC3-EVO.nfo": 2020}
创建时间: 2022-10-11 06:42:07 大小:2.24 GB 文件数量:4 热度:7 最近下载:2025-08-29 19:16:03
    {"jack2.5-lpc.avi": 734160896, "Please read me.txt": 620}
创建时间: 2022-10-22 20:37:32 大小:700.15 MB 文件数量:2 热度:2 最近下载:2025-02-24 03:23:03